sensor_id;sensor_type;location;lat;lon;timestamp;P1;durP1;ratioP1;P2;durP2;ratioP2
50789;SDS011;37287;47.554;7.844;2022-10-16T00:01:22;5.93;;;2.30;;
50789;SDS011;37287;47.554;7.844;2022-10-16T00:03:50;4.47;;;2.17;;
50789;SDS011;37287;47.554;7.844;2022-10-16T00:06:18;6.68;;;1.90;;
50789;SDS011;37287;47.554;7.844;2022-10-16T00:08:48;2.95;;;1.80;;
50789;SDS011;37287;47.554;7.844;2022-10-16T00:11:20;3.20;;;2.03;;
50789;SDS011;37287;47.554;7.844;2022-10-16T00:13:49;4.57;;;2.00;;
50789;SDS011;37287;47.554;7.844;2022-10-16T00:16:18;3.00;;;2.10;;
50789;SDS011;37287;47.554;7.844;2022-10-16T00:18:45;5.75;;;2.00;;
50789;SDS011;37287;47.554;7.844;2022-10-16T00:21:13;3.03;;;1.90;;
50789;SDS011;37287;47.554;7.844;2022-10-16T00:23:49;4.10;;;1.95;;
50789;SDS011;37287;47.554;7.844;2022-10-16T00:26:17;4.40;;;1.60;;
50789;SDS011;37287;47.554;7.844;2022-10-16T00:28:47;3.85;;;1.98;;
50789;SDS011;37287;47.554;7.844;2022-10-16T00:31:16;3.25;;;2.00;;
50789;SDS011;37287;47.554;7.844;2022-10-16T00:33:44;3.97;;;2.05;;
50789;SDS011;37287;47.554;7.844;2022-10-16T00:36:12;7.30;;;1.85;;
50789;SDS011;37287;47.554;7.844;2022-10-16T00:38:43;5.35;;;2.17;;
50789;SDS011;37287;47.554;7.844;2022-10-16T00:41:11;3.17;;;1.83;;
50789;SDS011;37287;47.554;7.844;2022-10-16T00:43:53;1.80;;;1.60;;
50789;SDS011;37287;47.554;7.844;2022-10-16T00:46:29;2.13;;;1.80;;
50789;SDS011;37287;47.554;7.844;2022-10-16T00:49:06;2.47;;;1.75;;
50789;SDS011;37287;47.554;7.844;2022-10-16T00:51:40;1.50;;;1.40;;
50789;SDS011;37287;47.554;7.844;2022-10-16T00:54:23;2.25;;;1.63;;
50789;SDS011;37287;47.554;7.844;2022-10-16T00:56:52;3.78;;;1.70;;
50789;SDS011;37287;47.554;7.844;2022-10-16T00:59:22;2.88;;;1.75;;
50789;SDS011;37287;47.554;7.844;2022-10-16T01:01:58;2.08;;;1.55;;
50789;SDS011;37287;47.554;7.844;2022-10-16T01:04:25;2.60;;;1.52;;
50789;SDS011;37287;47.554;7.844;2022-10-16T01:15:36;10.15;;;1.88;;
50789;SDS011;37287;47.554;7.844;2022-10-16T01:20:59;3.17;;;1.63;;
50789;SDS011;37287;47.554;7.844;2022-10-16T01:28:56;2.85;;;1.63;;
50789;SDS011;37287;47.554;7.844;2022-10-16T01:31:31;4.13;;;1.65;;
50789;SDS011;37287;47.554;7.844;2022-10-16T01:34:04;4.93;;;1.63;;
50789;SDS011;37287;47.554;7.844;2022-10-16T01:36:37;2.35;;;1.65;;
50789;SDS011;37287;47.554;7.844;2022-10-16T01:39:09;2.83;;;1.90;;
50789;SDS011;37287;47.554;7.844;2022-10-16T01:41:41;5.70;;;1.95;;
50789;SDS011;37287;47.554;7.844;2022-10-16T01:46:43;3.83;;;1.98;;
50789;SDS011;37287;47.554;7.844;2022-10-16T01:49:12;4.93;;;1.80;;
50789;SDS011;37287;47.554;7.844;2022-10-16T01:51:39;6.70;;;2.03;;
50789;SDS011;37287;47.554;7.844;2022-10-16T01:54:09;2.97;;;1.80;;
50789;SDS011;37287;47.554;7.844;2022-10-16T01:56:39;2.22;;;1.98;;
50789;SDS011;37287;47.554;7.844;2022-10-16T01:59:15;3.70;;;2.00;;
50789;SDS011;37287;47.554;7.844;2022-10-16T02:01:47;2.05;;;1.90;;
50789;SDS011;37287;47.554;7.844;2022-10-16T02:04:22;2.97;;;1.83;;
50789;SDS011;37287;47.554;7.844;2022-10-16T02:06:52;7.32;;;2.20;;
50789;SDS011;37287;47.554;7.844;2022-10-16T02:09:19;6.53;;;2.00;;
50789;SDS011;37287;47.554;7.844;2022-10-16T02:11:48;4.85;;;1.70;;
50789;SDS011;37287;47.554;7.844;2022-10-16T02:14:19;3.35;;;1.80;;
50789;SDS011;37287;47.554;7.844;2022-10-16T02:16:46;3.03;;;1.95;;
50789;SDS011;37287;47.554;7.844;2022-10-16T02:19:17;3.53;;;1.67;;
50789;SDS011;37287;47.554;7.844;2022-10-16T02:21:56;2.72;;;1.65;;
50789;SDS011;37287;47.554;7.844;2022-10-16T02:24:32;3.92;;;1.88;;
50789;SDS011;37287;47.554;7.844;2022-10-16T02:29:49;3.35;;;1.70;;
50789;SDS011;37287;47.554;7.844;2022-10-16T02:32:24;3.63;;;1.92;;
50789;SDS011;37287;47.554;7.844;2022-10-16T02:34:58;2.75;;;1.55;;
50789;SDS011;37287;47.554;7.844;2022-10-16T02:37:26;3.58;;;1.60;;
50789;SDS011;37287;47.554;7.844;2022-10-16T02:39:54;2.95;;;1.73;;
50789;SDS011;37287;47.554;7.844;2022-10-16T02:42:29;1.77;;;1.67;;
50789;SDS011;37287;47.554;7.844;2022-10-16T02:44:59;3.97;;;1.70;;
50789;SDS011;37287;47.554;7.844;2022-10-16T02:47:25;1.42;;;1.33;;
50789;SDS011;37287;47.554;7.844;2022-10-16T02:49:57;2.35;;;1.45;;
50789;SDS011;37287;47.554;7.844;2022-10-16T02:52:24;5.25;;;1.80;;
50789;SDS011;37287;47.554;7.844;2022-10-16T02:54:51;5.38;;;1.85;;
50789;SDS011;37287;47.554;7.844;2022-10-16T02:57:18;2.28;;;2.00;;
50789;SDS011;37287;47.554;7.844;2022-10-16T02:59:45;1.98;;;1.65;;
50789;SDS011;37287;47.554;7.844;2022-10-16T03:02:11;7.30;;;1.80;;
50789;SDS011;37287;47.554;7.844;2022-10-16T03:04:40;5.30;;;1.80;;
50789;SDS011;37287;47.554;7.844;2022-10-16T03:07:07;3.15;;;1.83;;
50789;SDS011;37287;47.554;7.844;2022-10-16T03:09:33;6.10;;;2.00;;
50789;SDS011;37287;47.554;7.844;2022-10-16T03:12:08;4.22;;;1.98;;
50789;SDS011;37287;47.554;7.844;2022-10-16T03:14:34;10.18;;;2.30;;
50789;SDS011;37287;47.554;7.844;2022-10-16T03:17:01;2.30;;;2.08;;
50789;SDS011;37287;47.554;7.844;2022-10-16T03:19:29;2.78;;;2.03;;
50789;SDS011;37287;47.554;7.844;2022-10-16T03:21:56;3.35;;;2.10;;
50789;SDS011;37287;47.554;7.844;2022-10-16T03:24:23;2.10;;;1.90;;
50789;SDS011;37287;47.554;7.844;2022-10-16T03:26:51;3.28;;;1.90;;
50789;SDS011;37287;47.554;7.844;2022-10-16T03:29:18;2.25;;;1.77;;
50789;SDS011;37287;47.554;7.844;2022-10-16T03:31:45;4.13;;;2.00;;
50789;SDS011;37287;47.554;7.844;2022-10-16T03:34:13;5.28;;;2.03;;
50789;SDS011;37287;47.554;7.844;2022-10-16T03:36:40;3.35;;;1.90;;
50789;SDS011;37287;47.554;7.844;2022-10-16T03:39:06;5.90;;;2.22;;
50789;SDS011;37287;47.554;7.844;2022-10-16T03:41:33;2.22;;;2.03;;
50789;SDS011;37287;47.554;7.844;2022-10-16T03:44:04;2.15;;;1.80;;
50789;SDS011;37287;47.554;7.844;2022-10-16T03:46:31;5.72;;;2.03;;
50789;SDS011;37287;47.554;7.844;2022-10-16T03:48:59;2.33;;;2.10;;
50789;SDS011;37287;47.554;7.844;2022-10-16T03:51:25;3.15;;;1.92;;
50789;SDS011;37287;47.554;7.844;2022-10-16T03:53:52;4.93;;;2.00;;
50789;SDS011;37287;47.554;7.844;2022-10-16T03:56:25;2.13;;;1.90;;
50789;SDS011;37287;47.554;7.844;2022-10-16T03:58:52;2.90;;;1.95;;
50789;SDS011;37287;47.554;7.844;2022-10-16T04:01:19;5.45;;;1.65;;
50789;SDS011;37287;47.554;7.844;2022-10-16T04:03:47;4.60;;;2.17;;
50789;SDS011;37287;47.554;7.844;2022-10-16T04:06:13;4.07;;;2.17;;
50789;SDS011;37287;47.554;7.844;2022-10-16T04:08:42;2.80;;;2.20;;
50789;SDS011;37287;47.554;7.844;2022-10-16T04:11:10;3.08;;;2.10;;
50789;SDS011;37287;47.554;7.844;2022-10-16T04:13:37;6.93;;;2.17;;
50789;SDS011;37287;47.554;7.844;2022-10-16T04:16:04;1.75;;;1.60;;
50789;SDS011;37287;47.554;7.844;2022-10-16T04:18:31;4.93;;;1.92;;
50789;SDS011;37287;47.554;7.844;2022-10-16T04:21:02;2.47;;;2.00;;
50789;SDS011;37287;47.554;7.844;2022-10-16T04:23:30;4.45;;;1.88;;
50789;SDS011;37287;47.554;7.844;2022-10-16T04:26:05;5.88;;;2.38;;
50789;SDS011;37287;47.554;7.844;2022-10-16T04:28:32;2.63;;;2.17;;
50789;SDS011;37287;47.554;7.844;2022-10-16T04:30:59;2.10;;;1.98;;
50789;SDS011;37287;47.554;7.844;2022-10-16T04:33:27;12.35;;;2.50;;
50789;SDS011;37287;47.554;7.844;2022-10-16T04:35:57;3.45;;;2.05;;
50789;SDS011;37287;47.554;7.844;2022-10-16T04:38:25;3.97;;;2.38;;
50789;SDS011;37287;47.554;7.844;2022-10-16T04:40:52;4.70;;;2.30;;
50789;SDS011;37287;47.554;7.844;2022-10-16T04:43:18;5.78;;;2.20;;
50789;SDS011;37287;47.554;7.844;2022-10-16T04:45:46;2.17;;;1.92;;
50789;SDS011;37287;47.554;7.844;2022-10-16T04:48:14;2.88;;;2.10;;
50789;SDS011;37287;47.554;7.844;2022-10-16T04:50:41;5.30;;;1.90;;
50789;SDS011;37287;47.554;7.844;2022-10-16T04:53:07;3.08;;;2.00;;
50789;SDS011;37287;47.554;7.844;2022-10-16T04:55:36;4.05;;;2.05;;
50789;SDS011;37287;47.554;7.844;2022-10-16T04:58:04;2.65;;;1.95;;
50789;SDS011;37287;47.554;7.844;2022-10-16T05:00:31;5.05;;;1.95;;
50789;SDS011;37287;47.554;7.844;2022-10-16T05:03:04;2.92;;;1.92;;
50789;SDS011;37287;47.554;7.844;2022-10-16T05:05:34;6.40;;;2.05;;
50789;SDS011;37287;47.554;7.844;2022-10-16T05:08:02;4.45;;;1.90;;
50789;SDS011;37287;47.554;7.844;2022-10-16T05:10:29;3.30;;;1.95;;
50789;SDS011;37287;47.554;7.844;2022-10-16T05:12:55;2.72;;;1.70;;
50789;SDS011;37287;47.554;7.844;2022-10-16T05:15:22;4.15;;;1.67;;
50789;SDS011;37287;47.554;7.844;2022-10-16T05:17:53;6.53;;;2.47;;
50789;SDS011;37287;47.554;7.844;2022-10-16T05:20:20;6.25;;;2.13;;
50789;SDS011;37287;47.554;7.844;2022-10-16T05:22:47;4.28;;;1.85;;
50789;SDS011;37287;47.554;7.844;2022-10-16T05:25:14;1.88;;;1.67;;
50789;SDS011;37287;47.554;7.844;2022-10-16T05:27:43;2.58;;;1.90;;
50789;SDS011;37287;47.554;7.844;2022-10-16T05:30:09;3.83;;;2.15;;
50789;SDS011;37287;47.554;7.844;2022-10-16T05:32:38;3.40;;;2.10;;
50789;SDS011;37287;47.554;7.844;2022-10-16T05:35:04;6.25;;;2.15;;
50789;SDS011;37287;47.554;7.844;2022-10-16T05:37:36;6.57;;;2.15;;
50789;SDS011;37287;47.554;7.844;2022-10-16T05:40:03;2.92;;;1.85;;
50789;SDS011;37287;47.554;7.844;2022-10-16T05:42:31;4.72;;;1.92;;
50789;SDS011;37287;47.554;7.844;2022-10-16T05:44:57;5.68;;;1.98;;
50789;SDS011;37287;47.554;7.844;2022-10-16T05:47:25;2.03;;;1.70;;
50789;SDS011;37287;47.554;7.844;2022-10-16T05:49:53;1.40;;;1.30;;
50789;SDS011;37287;47.554;7.844;2022-10-16T05:52:20;1.88;;;1.70;;
50789;SDS011;37287;47.554;7.844;2022-10-16T05:54:48;2.08;;;1.65;;
50789;SDS011;37287;47.554;7.844;2022-10-16T05:57:14;3.10;;;1.50;;
50789;SDS011;37287;47.554;7.844;2022-10-16T05:59:41;2.75;;;1.70;;
50789;SDS011;37287;47.554;7.844;2022-10-16T06:02:10;6.43;;;1.85;;
50789;SDS011;37287;47.554;7.844;2022-10-16T06:04:40;7.22;;;1.95;;
50789;SDS011;37287;47.554;7.844;2022-10-16T06:07:07;4.60;;;1.80;;
50789;SDS011;37287;47.554;7.844;2022-10-16T06:09:41;4.05;;;1.70;;
50789;SDS011;37287;47.554;7.844;2022-10-16T06:12:08;1.88;;;1.70;;
50789;SDS011;37287;47.554;7.844;2022-10-16T06:14:34;5.47;;;1.73;;
50789;SDS011;37287;47.554;7.844;2022-10-16T06:17:13;7.47;;;1.70;;
50789;SDS011;37287;47.554;7.844;2022-10-16T06:19:40;3.22;;;1.60;;
50789;SDS011;37287;47.554;7.844;2022-10-16T06:22:07;3.10;;;1.85;;
50789;SDS011;37287;47.554;7.844;2022-10-16T06:24:34;4.68;;;1.95;;
50789;SDS011;37287;47.554;7.844;2022-10-16T06:27:00;3.28;;;1.85;;
50789;SDS011;37287;47.554;7.844;2022-10-16T06:29:27;7.68;;;2.15;;
50789;SDS011;37287;47.554;7.844;2022-10-16T06:31:53;5.30;;;2.00;;
50789;SDS011;37287;47.554;7.844;2022-10-16T06:34:20;2.60;;;1.80;;
50789;SDS011;37287;47.554;7.844;2022-10-16T06:36:46;2.00;;;1.90;;
50789;SDS011;37287;47.554;7.844;2022-10-16T06:39:15;2.72;;;2.25;;
50789;SDS011;37287;47.554;7.844;2022-10-16T06:41:45;4.30;;;1.90;;
50789;SDS011;37287;47.554;7.844;2022-10-16T06:44:11;3.50;;;1.83;;
50789;SDS011;37287;47.554;7.844;2022-10-16T06:46:38;2.58;;;1.85;;
50789;SDS011;37287;47.554;7.844;2022-10-16T06:49:05;5.78;;;2.38;;
50789;SDS011;37287;47.554;7.844;2022-10-16T06:51:31;2.50;;;2.08;;
50789;SDS011;37287;47.554;7.844;2022-10-16T06:54:08;2.38;;;2.17;;
50789;SDS011;37287;47.554;7.844;2022-10-16T06:56:35;2.97;;;2.00;;
50789;SDS011;37287;47.554;7.844;2022-10-16T06:59:02;2.00;;;1.70;;
50789;SDS011;37287;47.554;7.844;2022-10-16T07:01:29;2.30;;;1.75;;
50789;SDS011;37287;47.554;7.844;2022-10-16T07:03:56;5.00;;;1.75;;
50789;SDS011;37287;47.554;7.844;2022-10-16T07:06:30;3.35;;;1.80;;
50789;SDS011;37287;47.554;7.844;2022-10-16T07:09:00;4.30;;;1.90;;
50789;SDS011;37287;47.554;7.844;2022-10-16T07:11:30;6.90;;;1.90;;
50789;SDS011;37287;47.554;7.844;2022-10-16T07:13:56;7.43;;;1.77;;
50789;SDS011;37287;47.554;7.844;2022-10-16T07:16:24;2.97;;;1.75;;
50789;SDS011;37287;47.554;7.844;2022-10-16T07:18:56;3.00;;;1.85;;
50789;SDS011;37287;47.554;7.844;2022-10-16T07:21:27;3.22;;;1.90;;
50789;SDS011;37287;47.554;7.844;2022-10-16T07:23:58;3.65;;;1.65;;
50789;SDS011;37287;47.554;7.844;2022-10-16T07:26:29;4.70;;;2.30;;
50789;SDS011;37287;47.554;7.844;2022-10-16T07:28:59;2.53;;;1.70;;
50789;SDS011;37287;47.554;7.844;2022-10-16T07:31:27;2.38;;;1.70;;
50789;SDS011;37287;47.554;7.844;2022-10-16T07:33:53;2.75;;;1.60;;
50789;SDS011;37287;47.554;7.844;2022-10-16T07:36:20;4.80;;;1.40;;
50789;SDS011;37287;47.554;7.844;2022-10-16T07:38:47;1.80;;;1.50;;
50789;SDS011;37287;47.554;7.844;2022-10-16T07:41:20;2.60;;;1.73;;
50789;SDS011;37287;47.554;7.844;2022-10-16T07:43:48;3.45;;;1.70;;
50789;SDS011;37287;47.554;7.844;2022-10-16T07:46:16;3.53;;;1.70;;
50789;SDS011;37287;47.554;7.844;2022-10-16T07:48:43;3.58;;;1.80;;
50789;SDS011;37287;47.554;7.844;2022-10-16T07:51:14;3.30;;;1.67;;
50789;SDS011;37287;47.554;7.844;2022-10-16T07:53:42;8.15;;;1.73;;
50789;SDS011;37287;47.554;7.844;2022-10-16T07:56:11;4.80;;;1.58;;
50789;SDS011;37287;47.554;7.844;2022-10-16T07:58:38;2.83;;;1.90;;
50789;SDS011;37287;47.554;7.844;2022-10-16T08:01:08;2.90;;;1.70;;
50789;SDS011;37287;47.554;7.844;2022-10-16T08:03:41;3.58;;;1.60;;
50789;SDS011;37287;47.554;7.844;2022-10-16T08:06:11;2.28;;;1.40;;
50789;SDS011;37287;47.554;7.844;2022-10-16T08:08:38;3.13;;;1.50;;
50789;SDS011;37287;47.554;7.844;2022-10-16T08:11:04;4.20;;;1.92;;
50789;SDS011;37287;47.554;7.844;2022-10-16T08:13:31;3.80;;;1.70;;
50789;SDS011;37287;47.554;7.844;2022-10-16T08:15:58;2.75;;;1.70;;
50789;SDS011;37287;47.554;7.844;2022-10-16T08:18:25;4.13;;;1.60;;
50789;SDS011;37287;47.554;7.844;2022-10-16T08:20:58;3.85;;;1.60;;
50789;SDS011;37287;47.554;7.844;2022-10-16T08:23:28;2.90;;;1.55;;
50789;SDS011;37287;47.554;7.844;2022-10-16T08:26:01;6.32;;;1.73;;
50789;SDS011;37287;47.554;7.844;2022-10-16T08:28:31;2.55;;;1.40;;
50789;SDS011;37287;47.554;7.844;2022-10-16T08:31:11;1.85;;;1.40;;
50789;SDS011;37287;47.554;7.844;2022-10-16T08:33:47;1.45;;;1.30;;
50789;SDS011;37287;47.554;7.844;2022-10-16T08:36:14;7.45;;;1.58;;
50789;SDS011;37287;47.554;7.844;2022-10-16T08:38:43;1.60;;;1.30;;
50789;SDS011;37287;47.554;7.844;2022-10-16T08:43:44;2.65;;;1.40;;
50789;SDS011;37287;47.554;7.844;2022-10-16T08:49:28;1.42;;;1.30;;
50789;SDS011;37287;47.554;7.844;2022-10-16T08:51:58;2.80;;;1.13;;
50789;SDS011;37287;47.554;7.844;2022-10-16T08:57:19;4.85;;;1.35;;
50789;SDS011;37287;47.554;7.844;2022-10-16T08:59:49;2.70;;;1.33;;
50789;SDS011;37287;47.554;7.844;2022-10-16T09:11:06;2.92;;;1.33;;
50789;SDS011;37287;47.554;7.844;2022-10-16T09:14:01;2.38;;;1.50;;
50789;SDS011;37287;47.554;7.844;2022-10-16T09:16:42;1.58;;;1.20;;
50789;SDS011;37287;47.554;7.844;2022-10-16T09:19:19;5.20;;;1.60;;
50789;SDS011;37287;47.554;7.844;2022-10-16T09:21:53;1.73;;;1.55;;
50789;SDS011;37287;47.554;7.844;2022-10-16T09:24:21;2.85;;;1.88;;
50789;SDS011;37287;47.554;7.844;2022-10-16T09:26:54;4.43;;;1.70;;
50789;SDS011;37287;47.554;7.844;2022-10-16T09:29:21;1.63;;;1.42;;
50789;SDS011;37287;47.554;7.844;2022-10-16T09:31:52;11.65;;;1.67;;
50789;SDS011;37287;47.554;7.844;2022-10-16T09:34:26;7.22;;;1.80;;
50789;SDS011;37287;47.554;7.844;2022-10-16T09:36:59;5.47;;;1.80;;
50789;SDS011;37287;47.554;7.844;2022-10-16T09:39:27;5.70;;;1.70;;
50789;SDS011;37287;47.554;7.844;2022-10-16T09:41:54;3.20;;;1.75;;
50789;SDS011;37287;47.554;7.844;2022-10-16T09:44:23;5.03;;;1.70;;
50789;SDS011;37287;47.554;7.844;2022-10-16T09:47:12;3.40;;;1.50;;
50789;SDS011;37287;47.554;7.844;2022-10-16T09:52:28;4.57;;;1.80;;
50789;SDS011;37287;47.554;7.844;2022-10-16T09:54:57;4.32;;;1.50;;
50789;SDS011;37287;47.554;7.844;2022-10-16T09:57:25;4.82;;;1.60;;
50789;SDS011;37287;47.554;7.844;2022-10-16T09:59:53;2.40;;;1.40;;
50789;SDS011;37287;47.554;7.844;2022-10-16T10:02:35;2.38;;;1.33;;
50789;SDS011;37287;47.554;7.844;2022-10-16T10:05:13;2.67;;;1.48;;
50789;SDS011;37287;47.554;7.844;2022-10-16T10:07:52;2.65;;;1.40;;
50789;SDS011;37287;47.554;7.844;2022-10-16T10:10:27;3.60;;;1.58;;
50789;SDS011;37287;47.554;7.844;2022-10-16T10:12:57;3.33;;;1.67;;
50789;SDS011;37287;47.554;7.844;2022-10-16T10:15:24;3.53;;;1.73;;
50789;SDS011;37287;47.554;7.844;2022-10-16T10:17:54;3.28;;;1.30;;
50789;SDS011;37287;47.554;7.844;2022-10-16T10:23:01;4.82;;;1.40;;
50789;SDS011;37287;47.554;7.844;2022-10-16T10:25:57;2.35;;;1.33;;
50789;SDS011;37287;47.554;7.844;2022-10-16T10:31:26;4.55;;;1.60;;
50789;SDS011;37287;47.554;7.844;2022-10-16T10:37:30;3.75;;;1.42;;
50789;SDS011;37287;47.554;7.844;2022-10-16T10:47:56;7.78;;;1.35;;
50789;SDS011;37287;47.554;7.844;2022-10-16T10:56:08;4.67;;;1.87;;
50789;SDS011;37287;47.554;7.844;2022-10-16T10:58:52;2.38;;;1.40;;
50789;SDS011;37287;47.554;7.844;2022-10-16T11:01:54;2.58;;;1.30;;
50789;SDS011;37287;47.554;7.844;2022-10-16T11:07:00;2.20;;;1.63;;
50789;SDS011;37287;47.554;7.844;2022-10-16T11:09:36;3.55;;;1.50;;
50789;SDS011;37287;47.554;7.844;2022-10-16T11:22:42;6.05;;;1.50;;
50789;SDS011;37287;47.554;7.844;2022-10-16T11:25:21;5.93;;;1.87;;
50789;SDS011;37287;47.554;7.844;2022-10-16T11:30:25;5.32;;;1.40;;
50789;SDS011;37287;47.554;7.844;2022-10-16T11:35:50;1.90;;;1.20;;
50789;SDS011;37287;47.554;7.844;2022-10-16T11:41:10;2.78;;;1.30;;
50789;SDS011;37287;47.554;7.844;2022-10-16T11:44:04;3.13;;;1.60;;
50789;SDS011;37287;47.554;7.844;2022-10-16T11:46:43;4.85;;;1.30;;
50789;SDS011;37287;47.554;7.844;2022-10-16T11:49:34;8.63;;;1.35;;
50789;SDS011;37287;47.554;7.844;2022-10-16T11:57:21;4.47;;;1.52;;
50789;SDS011;37287;47.554;7.844;2022-10-16T12:00:17;3.45;;;1.10;;
50789;SDS011;37287;47.554;7.844;2022-10-16T12:02:50;4.32;;;1.45;;
50789;SDS011;37287;47.554;7.844;2022-10-16T12:05:24;2.55;;;1.20;;
50789;SDS011;37287;47.554;7.844;2022-10-16T12:08:08;3.55;;;1.20;;
50789;SDS011;37287;47.554;7.844;2022-10-16T12:10:44;3.22;;;1.30;;
50789;SDS011;37287;47.554;7.844;2022-10-16T12:18:40;5.57;;;1.08;;
50789;SDS011;37287;47.554;7.844;2022-10-16T12:21:08;1.55;;;0.95;;
50789;SDS011;37287;47.554;7.844;2022-10-16T12:26:25;3.92;;;1.00;;
50789;SDS011;37287;47.554;7.844;2022-10-16T12:28:55;5.72;;;1.23;;
50789;SDS011;37287;47.554;7.844;2022-10-16T12:31:47;4.93;;;1.20;;
50789;SDS011;37287;47.554;7.844;2022-10-16T12:34:27;2.58;;;1.00;;
50789;SDS011;37287;47.554;7.844;2022-10-16T12:37:08;3.05;;;1.15;;
50789;SDS011;37287;47.554;7.844;2022-10-16T12:39:40;1.08;;;0.77;;
50789;SDS011;37287;47.554;7.844;2022-10-16T12:44:55;5.32;;;1.15;;
50789;SDS011;37287;47.554;7.844;2022-10-16T12:47:23;1.20;;;0.95;;
50789;SDS011;37287;47.554;7.844;2022-10-16T12:52:57;8.73;;;1.23;;
50789;SDS011;37287;47.554;7.844;2022-10-16T12:55:47;6.85;;;1.20;;
50789;SDS011;37287;47.554;7.844;2022-10-16T13:01:10;2.35;;;1.00;;
50789;SDS011;37287;47.554;7.844;2022-10-16T13:03:57;4.15;;;1.10;;
50789;SDS011;37287;47.554;7.844;2022-10-16T13:09:13;11.73;;;1.10;;
50789;SDS011;37287;47.554;7.844;2022-10-16T13:20:20;6.75;;;1.25;;
50789;SDS011;37287;47.554;7.844;2022-10-16T13:22:57;2.45;;;1.00;;
50789;SDS011;37287;47.554;7.844;2022-10-16T13:25:41;4.18;;;1.35;;
50789;SDS011;37287;47.554;7.844;2022-10-16T13:28:17;2.80;;;1.20;;
50789;SDS011;37287;47.554;7.844;2022-10-16T13:30:56;6.00;;;1.20;;
50789;SDS011;37287;47.554;7.844;2022-10-16T13:33:32;5.03;;;1.20;;
50789;SDS011;37287;47.554;7.844;2022-10-16T13:36:04;0.95;;;0.93;;
50789;SDS011;37287;47.554;7.844;2022-10-16T13:38:32;4.95;;;1.10;;
50789;SDS011;37287;47.554;7.844;2022-10-16T13:41:04;2.22;;;1.08;;
50789;SDS011;37287;47.554;7.844;2022-10-16T13:43:34;2.95;;;1.33;;
50789;SDS011;37287;47.554;7.844;2022-10-16T13:46:05;4.50;;;1.17;;
50789;SDS011;37287;47.554;7.844;2022-10-16T13:48:38;2.42;;;1.27;;
50789;SDS011;37287;47.554;7.844;2022-10-16T13:51:12;3.05;;;1.10;;
50789;SDS011;37287;47.554;7.844;2022-10-16T13:53:43;1.75;;;0.95;;
50789;SDS011;37287;47.554;7.844;2022-10-16T13:56:12;2.63;;;0.90;;
50789;SDS011;37287;47.554;7.844;2022-10-16T13:58:42;4.35;;;1.00;;
50789;SDS011;37287;47.554;7.844;2022-10-16T14:01:19;1.33;;;0.95;;
50789;SDS011;37287;47.554;7.844;2022-10-16T14:04:14;1.17;;;0.93;;
50789;SDS011;37287;47.554;7.844;2022-10-16T14:06:45;0.85;;;0.85;;
50789;SDS011;37287;47.554;7.844;2022-10-16T14:11:56;2.38;;;0.82;;
50789;SDS011;37287;47.554;7.844;2022-10-16T14:14:34;5.75;;;1.13;;
50789;SDS011;37287;47.554;7.844;2022-10-16T14:17:12;3.15;;;0.93;;
50789;SDS011;37287;47.554;7.844;2022-10-16T14:19:44;2.08;;;1.00;;
50789;SDS011;37287;47.554;7.844;2022-10-16T14:25:01;2.72;;;0.82;;
50789;SDS011;37287;47.554;7.844;2022-10-16T14:27:39;2.35;;;0.90;;
50789;SDS011;37287;47.554;7.844;2022-10-16T14:30:19;0.70;;;0.70;;
50789;SDS011;37287;47.554;7.844;2022-10-16T14:32:58;3.90;;;0.82;;
50789;SDS011;37287;47.554;7.844;2022-10-16T14:35:28;0.55;;;0.55;;
50789;SDS011;37287;47.554;7.844;2022-10-16T14:38:06;1.23;;;0.90;;
50789;SDS011;37287;47.554;7.844;2022-10-16T14:40:46;0.93;;;0.80;;
50789;SDS011;37287;47.554;7.844;2022-10-16T14:43:17;1.67;;;0.90;;
50789;SDS011;37287;47.554;7.844;2022-10-16T14:45:51;1.45;;;0.85;;
50789;SDS011;37287;47.554;7.844;2022-10-16T14:48:22;4.47;;;0.95;;
50789;SDS011;37287;47.554;7.844;2022-10-16T14:50:49;2.45;;;1.40;;
50789;SDS011;37287;47.554;7.844;2022-10-16T14:53:16;3.45;;;1.27;;
50789;SDS011;37287;47.554;7.844;2022-10-16T14:55:43;5.05;;;1.20;;
50789;SDS011;37287;47.554;7.844;2022-10-16T14:58:13;1.15;;;1.00;;
50789;SDS011;37287;47.554;7.844;2022-10-16T15:00:42;5.00;;;1.15;;
50789;SDS011;37287;47.554;7.844;2022-10-16T15:03:09;3.00;;;0.90;;
50789;SDS011;37287;47.554;7.844;2022-10-16T15:05:36;3.45;;;1.00;;
50789;SDS011;37287;47.554;7.844;2022-10-16T15:08:03;1.17;;;1.00;;
50789;SDS011;37287;47.554;7.844;2022-10-16T15:10:37;1.67;;;1.10;;
50789;SDS011;37287;47.554;7.844;2022-10-16T15:13:06;1.92;;;1.00;;
50789;SDS011;37287;47.554;7.844;2022-10-16T15:15:36;3.08;;;1.00;;
50789;SDS011;37287;47.554;7.844;2022-10-16T15:18:07;6.28;;;1.00;;
50789;SDS011;37287;47.554;7.844;2022-10-16T15:20:34;1.63;;;1.00;;
50789;SDS011;37287;47.554;7.844;2022-10-16T15:23:10;2.63;;;1.10;;
50789;SDS011;37287;47.554;7.844;2022-10-16T15:25:46;5.65;;;1.35;;
50789;SDS011;37287;47.554;7.844;2022-10-16T15:28:14;3.03;;;1.40;;
50789;SDS011;37287;47.554;7.844;2022-10-16T15:30:42;5.57;;;1.10;;
50789;SDS011;37287;47.554;7.844;2022-10-16T15:33:17;1.10;;;1.00;;
50789;SDS011;37287;47.554;7.844;2022-10-16T15:35:46;7.82;;;1.23;;
50789;SDS011;37287;47.554;7.844;2022-10-16T15:38:19;4.00;;;1.13;;
50789;SDS011;37287;47.554;7.844;2022-10-16T15:40:47;2.95;;;1.02;;
50789;SDS011;37287;47.554;7.844;2022-10-16T15:43:14;5.18;;;1.30;;
50789;SDS011;37287;47.554;7.844;2022-10-16T15:45:41;1.60;;;1.30;;
50789;SDS011;37287;47.554;7.844;2022-10-16T15:48:13;5.88;;;1.58;;
50789;SDS011;37287;47.554;7.844;2022-10-16T15:50:40;3.83;;;1.77;;
50789;SDS011;37287;47.554;7.844;2022-10-16T15:53:07;5.13;;;1.60;;
50789;SDS011;37287;47.554;7.844;2022-10-16T15:55:33;3.95;;;1.60;;
50789;SDS011;37287;47.554;7.844;2022-10-16T15:58:00;5.22;;;1.58;;
50789;SDS011;37287;47.554;7.844;2022-10-16T16:00:27;1.35;;;1.15;;
50789;SDS011;37287;47.554;7.844;2022-10-16T16:03:08;7.72;;;1.30;;
50789;SDS011;37287;47.554;7.844;2022-10-16T16:05:37;5.18;;;1.40;;
50789;SDS011;37287;47.554;7.844;2022-10-16T16:08:10;3.83;;;1.30;;
50789;SDS011;37287;47.554;7.844;2022-10-16T16:10:39;1.10;;;1.00;;
50789;SDS011;37287;47.554;7.844;2022-10-16T16:13:05;3.13;;;1.42;;
50789;SDS011;37287;47.554;7.844;2022-10-16T16:15:32;2.67;;;1.40;;
50789;SDS011;37287;47.554;7.844;2022-10-16T16:17:59;3.78;;;1.33;;
50789;SDS011;37287;47.554;7.844;2022-10-16T16:20:28;1.55;;;1.23;;
50789;SDS011;37287;47.554;7.844;2022-10-16T16:22:54;1.88;;;1.17;;
50789;SDS011;37287;47.554;7.844;2022-10-16T16:25:23;10.48;;;1.30;;
50789;SDS011;37287;47.554;7.844;2022-10-16T16:27:49;1.42;;;1.27;;
50789;SDS011;37287;47.554;7.844;2022-10-16T16:30:16;8.50;;;1.35;;
50789;SDS011;37287;47.554;7.844;2022-10-16T16:32:53;1.90;;;1.10;;
50789;SDS011;37287;47.554;7.844;2022-10-16T16:35:19;1.25;;;1.08;;
50789;SDS011;37287;47.554;7.844;2022-10-16T16:37:46;4.03;;;1.27;;
50789;SDS011;37287;47.554;7.844;2022-10-16T16:40:13;1.77;;;1.23;;
50789;SDS011;37287;47.554;7.844;2022-10-16T16:42:40;4.65;;;1.10;;
50789;SDS011;37287;47.554;7.844;2022-10-16T16:45:06;2.70;;;1.30;;
50789;SDS011;37287;47.554;7.844;2022-10-16T16:47:34;3.83;;;1.40;;
50789;SDS011;37287;47.554;7.844;2022-10-16T16:50:00;5.88;;;1.20;;
50789;SDS011;37287;47.554;7.844;2022-10-16T16:52:34;1.65;;;1.10;;
50789;SDS011;37287;47.554;7.844;2022-10-16T16:55:03;1.75;;;1.17;;
50789;SDS011;37287;47.554;7.844;2022-10-16T16:57:34;0.98;;;0.98;;
50789;SDS011;37287;47.554;7.844;2022-10-16T17:00:00;4.55;;;1.40;;
50789;SDS011;37287;47.554;7.844;2022-10-16T17:02:27;2.25;;;1.30;;
50789;SDS011;37287;47.554;7.844;2022-10-16T17:04:53;7.72;;;1.30;;
50789;SDS011;37287;47.554;7.844;2022-10-16T17:07:22;5.55;;;1.50;;
50789;SDS011;37287;47.554;7.844;2022-10-16T17:09:52;3.10;;;1.42;;
50789;SDS011;37287;47.554;7.844;2022-10-16T17:12:18;2.78;;;1.58;;
50789;SDS011;37287;47.554;7.844;2022-10-16T17:14:45;3.17;;;1.65;;